»·PEaware :: N537TW KCMA-KPSP

N537TW :: KCMA-KPSP

FLIGHT INFORMATION

Flight Status: Arrived
Operator: Privately registered:
United States
More flights under this callsign
Pilot: Anonymous 20880 (20880)
Aircraft: Unknown
(P06T)
More flights by this aircraft type
Origin: KCMA Camarillo
United States
Destination: KPSP Palm Springs Intl
United States
More flights between these airports :: More routes between these airports
Route:
File this flight plan on PilotEdge
Remarks:
Altitude:
(Current/Filed)
10,500ft
Speed:
(Current/Filed)
140kts
Departed: 06-Dec-18 06:53 PM
Arrived: 06-Dec-18 07:58 PM
Distance/Time
Traveled:
131nm/1:04
Distance/Time
To Go:
Arrived

Flight Plot

Page will automatically refresh every two minutes.

Flight plan parsing failed; only flown route is shown


Map Options




Map Legend


Flown Route
Filed Route
Departure Airport
Arrival Airport
Navaid (VOR, NDB)
Fix

Horizontal Profiles

Position Reports

Time Latitude Longitude Heading Altitude Ground
Speed
06-Dec-18 18:37 34.210563 -119.095233 1 64ft 0kts
06-Dec-18 18:38 34.210563 -119.095233 1 64ft 0kts
06-Dec-18 18:39 34.210563 -119.095233 1 64ft 0kts
06-Dec-18 18:40 34.210563 -119.095233 1 64ft 0kts
06-Dec-18 18:41 34.210563 -119.095233 1 64ft 0kts
06-Dec-18 18:42 34.210563 -119.095233 1 64ft 0kts
06-Dec-18 18:43 34.210563 -119.095233 1 64ft 0kts
06-Dec-18 18:44 34.210563 -119.095233 1 64ft 0kts
06-Dec-18 18:45 34.210563 -119.095233 1 64ft 0kts
06-Dec-18 18:46 34.210563 -119.095233 1 64ft 0kts
06-Dec-18 18:47 34.210563 -119.095233 1 64ft 0kts
06-Dec-18 18:47 34.210563 -119.095233 1 64ft 0kts
06-Dec-18 18:48 34.210563 -119.095233 1 64ft 0kts
06-Dec-18 18:49 34.211027 -119.095860 270 63ft 18kts
06-Dec-18 18:50 34.212483 -119.103346 299 60ft 20kts
06-Dec-18 18:51 34.213047 -119.104052 356 60ft 0kts
06-Dec-18 18:52 34.213282 -119.092010 94 451ft 66kts
06-Dec-18 18:53 34.212653 -119.068834 96 2147ft 61kts
06-Dec-18 18:54 34.207134 -119.040411 99 3234ft 103kts
06-Dec-18 18:55 34.202050 -119.004578 91 4248ft 111kts
06-Dec-18 18:56 34.199311 -118.967364 90 5240ft 113kts
06-Dec-18 18:57 34.196171 -118.929071 89 6090ft 124kts
06-Dec-18 18:58 34.192693 -118.886722 99 6593ft 129kts
06-Dec-18 18:59 34.189026 -118.845741 99 7061ft 128kts
06-Dec-18 19:00 34.185949 -118.810899 99 7459ft 127kts
06-Dec-18 19:01 34.182952 -118.777199 99 7500ft 138kts
06-Dec-18 19:02 34.180058 -118.744423 98 7498ft 140kts
06-Dec-18 19:03 34.175953 -118.698036 98 7497ft 140kts
06-Dec-18 19:04 34.171802 -118.651318 97 7498ft 140kts
06-Dec-18 19:05 34.167557 -118.604455 95 7504ft 150kts
06-Dec-18 19:06 34.162833 -118.550869 96 7502ft 168kts
06-Dec-18 19:07 34.157881 -118.496018 96 7499ft 168kts
06-Dec-18 19:08 34.152831 -118.440300 96 7497ft 167kts
06-Dec-18 19:09 34.148404 -118.390707 99 7509ft 155kts
06-Dec-18 19:10 34.143734 -118.340357 100 7515ft 151kts
06-Dec-18 19:11 34.139082 -118.289975 99 7517ft 151kts
06-Dec-18 19:12 34.134418 -118.239489 99 7517ft 151kts
06-Dec-18 19:13 34.129766 -118.189353 99 7517ft 150kts
06-Dec-18 19:14 34.125124 -118.139531 99 7517ft 149kts
06-Dec-18 19:15 34.120487 -118.089977 99 7517ft 148kts
06-Dec-18 19:16 34.115886 -118.040958 99 7517ft 147kts
06-Dec-18 19:17 34.111332 -117.992670 99 7498ft 147kts
06-Dec-18 19:18 34.107172 -117.948767 99 7498ft 146kts
06-Dec-18 19:19 34.102578 -117.900476 99 7498ft 146kts
06-Dec-18 19:20 34.097990 -117.852456 100 7498ft 145kts
06-Dec-18 19:21 34.093407 -117.804690 100 7499ft 146kts
06-Dec-18 19:22 34.088819 -117.757059 100 7501ft 146kts
06-Dec-18 19:23 34.084380 -117.711168 100 7503ft 147kts
06-Dec-18 19:24 34.080175 -117.667855 100 7504ft 148kts
06-Dec-18 19:25 34.075678 -117.621736 100 7504ft 150kts
06-Dec-18 19:26 34.071414 -117.578249 100 7509ft 150kts
06-Dec-18 19:27 34.066713 -117.530492 99 7512ft 148kts
06-Dec-18 19:28 34.062195 -117.484707 98 7515ft 147kts
06-Dec-18 19:29 34.058160 -117.443950 98 7518ft 147kts
06-Dec-18 19:30 34.054351 -117.405593 97 7521ft 147kts
06-Dec-18 19:31 34.050019 -117.362120 96 7529ft 158kts
06-Dec-18 19:32 34.045559 -117.317376 97 7525ft 162kts
06-Dec-18 19:33 34.036909 -117.275515 108 7523ft 163kts
06-Dec-18 19:34 34.027089 -117.237904 108 7521ft 151kts
06-Dec-18 19:35 34.018141 -117.204103 108 7521ft 147kts
06-Dec-18 19:36 34.007123 -117.162752 109 7519ft 147kts
06-Dec-18 19:37 33.997269 -117.125825 109 7229ft 118kts
06-Dec-18 19:38 33.988873 -117.094545 109 6366ft 113kts
06-Dec-18 19:39 33.979858 -117.060936 108 5400ft 107kts
06-Dec-18 19:40 33.970143 -117.024774 108 4421ft 123kts
06-Dec-18 19:41 33.958701 -116.982229 108 3477ft 137kts
06-Dec-18 19:42 33.947267 -116.939714 108 3907ft 145kts
06-Dec-18 19:43 33.944431 -116.890204 93 3904ft 149kts
06-Dec-18 19:44 33.943395 -116.839942 93 3917ft 150kts
06-Dec-18 19:45 33.942913 -116.788705 93 3942ft 156kts
06-Dec-18 19:46 33.942254 -116.735784 93 3968ft 159kts
06-Dec-18 19:47 33.941174 -116.682302 93 3994ft 160kts
06-Dec-18 19:48 33.939648 -116.630493 95 3748ft 137kts
06-Dec-18 19:49 33.916455 -116.601302 140 3218ft 116kts
06-Dec-18 19:50 33.892967 -116.575843 139 2716ft 113kts
06-Dec-18 19:51 33.877053 -116.544306 111 2217ft 112kts
06-Dec-18 19:52 33.859970 -116.514044 129 1720ft 113kts
06-Dec-18 19:53 33.839582 -116.484482 132 1500ft 113kts
06-Dec-18 19:54 33.818133 -116.455963 140 1361ft 93kts
06-Dec-18 19:55 33.818673 -116.474686 274 1034ft 76kts
06-Dec-18 19:56 33.823860 -116.498107 302 607ft 73kts
06-Dec-18 19:57 33.832403 -116.507218 325 430ft 33kts
06-Dec-18 19:58 33.835387 -116.508859 55 436ft 0kts
06-Dec-18 19:59 33.835358 -116.508822 147 435ft 0kts
06-Dec-18 20:00 33.835358 -116.508822 147 435ft 0kts
06-Dec-18 20:01 33.832405 -116.506231 143 427ft 26kts

Navigation Log

Ident Type
Flight plan parsing failed, navigation log unavailable